Time;durP1;ratioP1;P1;durP2;ratioP2;P2;SDS_P1;SDS_P2;PMS_P1;PMS_P2;Temp;Humidity;BMP_temperature;BMP_pressure;BME280_temperature;BME280_humidity;BME280_pressure;Samples;Min_cycle;Max_cycle;Signal;HPM_P1;HPM_P2
2021/11/25 00:01:05;;;;;;;;;;;;;;;2.26;77.14;98996.31;6128089;23;19920;-69
2021/11/25 00:03:30;;;;;;;;;;;;;;;2.29;77.09;98994.50;6153992;23;19932;-65
2021/11/25 00:05:56;;;;;;;;;;;;;;;2.24;77.21;98998.19;6153746;23;19951;-67
2021/11/25 00:08:22;;;;;;;;;;;;;;;2.29;77.20;99010.97;6153717;23;19928;-66
2021/11/25 00:10:47;;;;;;;;;;;;;;;2.30;77.71;99006.63;6153691;23;19920;-68
2021/11/25 00:13:13;;;;;;;;;;;;;;;2.25;77.57;98999.03;6154082;23;19921;-67
2021/11/25 00:15:39;;;;;;;;;;;;;;;2.31;77.54;99008.31;6153920;23;19924;-66
2021/11/25 00:18:05;;;;;;;;;;;;;;;2.35;77.26;99015.88;6153770;23;19921;-65
2021/11/25 00:20:31;;;;;;;;;;;;;;;2.34;77.10;99019.41;6155796;23;19999;-67
2021/11/25 00:22:56;;;;;;;;;;;;;;;2.40;76.93;99018.22;6154975;23;20007;-69
2021/11/25 00:25:22;;;;;;;;;;;;;;;2.47;76.61;99021.34;6155855;23;19920;-68
2021/11/25 00:27:48;;;;;;;;;;;;;;;2.45;76.60;99020.59;6155481;23;19920;-65
2021/11/25 00:30:13;;;;;;;;;;;;;;;2.45;76.41;99023.22;6155779;23;19926;-69
2021/11/25 00:32:39;;;;;;;;;;;;;;;2.49;76.45;99028.16;6155721;23;20259;-66
2021/11/25 00:35:05;;;;;;;;;;;;;;;2.51;76.20;99034.16;6129531;23;20285;-69
2021/11/25 00:37:31;;;;;;;;;;;;;;;2.53;76.22;99029.69;6155171;23;19920;-67
2021/11/25 00:39:57;;;;;;;;;;;;;;;2.49;76.39;99033.38;6154861;23;19921;-68
2021/11/25 00:42:22;;;;;;;;;;;;;;;2.47;76.25;99045.69;6104762;23;19920;-70
2021/11/25 00:44:48;;;;;;;;;;;;;;;2.42;76.21;99032.88;6155019;23;19921;-68
2021/11/25 00:47:14;;;;;;;;;;;;;;;2.43;76.85;99039.78;6155335;23;19921;-68
2021/11/25 00:49:39;;;;;;;;;;;;;;;2.46;76.54;99044.00;6154989;23;19921;-69
2021/11/25 00:52:05;;;;;;;;;;;;;;;2.40;77.00;99039.13;6155037;23;19999;-66
2021/11/25 00:54:31;;;;;;;;;;;;;;;2.37;77.09;99050.56;6156225;23;19932;-73
2021/11/25 00:56:56;;;;;;;;;;;;;;;2.35;76.98;99047.19;6104923;23;19921;-68
2021/11/25 00:59:22;;;;;;;;;;;;;;;2.35;77.43;99051.56;6155674;23;20016;-67
2021/11/25 01:01:48;;;;;;;;;;;;;;;2.28;77.24;99065.84;6155353;23;19951;-68
2021/11/25 01:04:13;;;;;;;;;;;;;;;2.31;77.51;99053.50;6155550;23;20019;-67
2021/11/25 01:06:39;;;;;;;;;;;;;;;2.34;77.53;99063.75;6155501;23;19932;-69
2021/11/25 01:09:05;;;;;;;;;;;;;;;2.38;77.37;99067.03;6129072;23;19921;-70
2021/11/25 01:11:30;;;;;;;;;;;;;;;2.35;77.27;99062.84;6155551;23;20304;-68
2021/11/25 01:13:56;;;;;;;;;;;;;;;2.32;77.47;99072.59;6154816;23;19959;-70
2021/11/25 01:16:22;;;;;;;;;;;;;;;2.34;77.26;99073.34;6155323;23;19921;-68
2021/11/25 01:18:48;;;;;;;;;;;;;;;2.28;76.78;99082.38;6154815;23;20198;-68
2021/11/25 01:21:13;;;;;;;;;;;;;;;2.29;77.07;99078.81;6155159;23;20344;-69
2021/11/25 01:23:39;;;;;;;;;;;;;;;2.25;76.91;99077.28;6154671;23;19924;-68
2021/11/25 01:26:05;;;;;;;;;;;;;;;2.27;76.61;99080.69;6154816;23;20438;-69
2021/11/25 01:28:31;;;;;;;;;;;;;;;2.23;76.58;99081.75;6154803;23;19929;-68
2021/11/25 01:30:57;;;;;;;;;;;;;;;2.22;76.28;99087.91;6154203;23;19967;-68
2021/11/25 01:33:24;;;;;;;;;;;;;;;2.26;76.38;99089.44;6155031;23;19920;-68
2021/11/25 01:35:50;;;;;;;;;;;;;;;2.32;76.14;99089.09;6154875;23;19921;-66
2021/11/25 01:38:16;;;;;;;;;;;;;;;2.33;76.20;99096.00;6154599;23;20011;-67
2021/11/25 01:40:42;;;;;;;;;;;;;;;2.41;76.23;99098.22;6129185;23;19924;-67
2021/11/25 01:43:08;;;;;;;;;;;;;;;2.39;75.96;99103.53;6155474;23;20224;-68
2021/11/25 01:45:34;;;;;;;;;;;;;;;2.39;75.60;99116.56;6155017;23;19920;-69
2021/11/25 01:48:00;;;;;;;;;;;;;;;2.35;76.11;99119.41;6155174;23;19928;-68
2021/11/25 01:50:26;;;;;;;;;;;;;;;2.41;76.39;99126.91;6154933;23;19920;-68
2021/11/25 01:52:52;;;;;;;;;;;;;;;2.56;75.72;99120.06;6154435;23;20324;-69
2021/11/25 01:55:18;;;;;;;;;;;;;;;2.47;75.77;99128.34;6153499;23;19921;-68
2021/11/25 01:57:44;;;;;;;;;;;;;;;2.47;75.83;99128.34;6154505;23;19963;-70
2021/11/25 02:00:30;;;;;;;;;;;;;;;2.40;76.54;99133.88;6154502;23;20062;-69
2021/11/25 02:02:56;;;;;;;;;;;;;;;2.42;76.61;99141.66;6127766;23;20296;-67
2021/11/25 02:05:21;;;;;;;;;;;;;;;2.36;76.45;99141.97;6153497;23;19927;-68
2021/11/25 02:07:47;;;;;;;;;;;;;;;2.35;76.51;99145.50;6154033;23;19921;-68
2021/11/25 02:10:13;;;;;;;;;;;;;;;2.34;76.74;99144.63;6128867;23;19968;-70
2021/11/25 02:12:39;;;;;;;;;;;;;;;2.33;76.85;99144.72;6154730;23;20332;-68
2021/11/25 02:15:05;;;;;;;;;;;;;;;2.30;76.62;99153.56;6154127;23;19927;-69
2021/11/25 02:17:31;;;;;;;;;;;;;;;2.31;76.84;99157.88;6153874;23;19925;-67
2021/11/25 02:19:56;;;;;;;;;;;;;;;2.32;77.17;99154.34;6103563;23;20402;-65
2021/11/25 02:22:22;;;;;;;;;;;;;;;2.29;77.10;99140.59;6128397;23;19995;-69
2021/11/25 02:24:51;;;;;;;;;;;;;;;2.25;77.16;99147.75;6154252;23;20296;-69
2021/11/25 02:27:20;;;;;;;;;;;;;;;2.22;76.13;99155.75;6154661;23;19966;-66
2021/11/25 02:29:45;;;;;;;;;;;;;;;2.25;76.06;99163.41;6154056;23;19928;-69
2021/11/25 02:32:11;;;;;;;;;;;;;;;2.27;75.74;99161.56;6154256;23;19920;-70
2021/11/25 02:34:36;;;;;;;;;;;;;;;2.30;75.73;99163.16;6154542;23;20537;-69
2021/11/25 02:37:02;;;;;;;;;;;;;;;2.33;75.77;99173.44;6153865;23;19928;-69
2021/11/25 02:39:28;;;;;;;;;;;;;;;2.32;75.99;99172.59;6154305;23;19920;-67
2021/11/25 02:41:53;;;;;;;;;;;;;;;2.27;76.53;99164.16;6153794;23;20292;-69
2021/11/25 02:44:19;;;;;;;;;;;;;;;2.20;76.85;99168.84;6154357;23;19924;-67
2021/11/25 02:46:48;;;;;;;;;;;;;;;2.13;77.36;99174.44;6154307;23;19928;-67
2021/11/25 02:49:14;;;;;;;;;;;;;;;2.17;77.17;99178.59;6154547;23;19921;-67
2021/11/25 02:51:39;;;;;;;;;;;;;;;2.14;77.55;99183.97;6153644;23;20251;-67
2021/11/25 02:54:05;;;;;;;;;;;;;;;2.03;77.31;99182.75;6153979;23;19985;-70
2021/11/25 02:56:31;;;;;;;;;;;;;;;2.07;76.84;99180.84;6153479;23;20380;-68
2021/11/25 02:58:57;;;;;;;;;;;;;;;2.21;76.47;99188.78;6152347;23;20340;-67
2021/11/25 03:01:23;;;;;;;;;;;;;;;2.23;76.19;99192.19;6153773;23;19920;-67
2021/11/25 03:03:49;;;;;;;;;;;;;;;2.19;76.73;99192.41;6152216;23;19944;-68
2021/11/25 03:06:14;;;;;;;;;;;;;;;2.15;76.51;99191.72;6153370;23;19921;-65
2021/11/25 03:08:40;;;;;;;;;;;;;;;2.24;76.78;99190.41;6153447;23;20010;-67
2021/11/25 03:11:07;;;;;;;;;;;;;;;2.26;76.59;99185.97;6153538;23;19943;-67
2021/11/25 03:13:33;;;;;;;;;;;;;;;2.26;76.74;99193.78;6154308;23;19927;-68
2021/11/25 03:15:58;;;;;;;;;;;;;;;2.22;76.60;99198.31;6154646;23;19976;-67
2021/11/25 03:18:25;;;;;;;;;;;;;;;2.26;76.51;99199.00;6154308;23;19924;-66
2021/11/25 03:20:52;;;;;;;;;;;;;;;2.28;76.49;99191.09;6153813;23;20007;-67
2021/11/25 03:23:19;;;;;;;;;;;;;;;2.30;76.34;99195.31;6128316;23;20348;-69
2021/11/25 03:25:45;;;;;;;;;;;;;;;2.29;76.69;99193.63;6154445;23;19920;-67
2021/11/25 03:28:10;;;;;;;;;;;;;;;2.33;76.64;99184.72;6153987;23;19931;-66
2021/11/25 03:30:36;;;;;;;;;;;;;;;2.35;76.28;99182.88;6153979;23;19927;-68
2021/11/25 03:33:03;;;;;;;;;;;;;;;2.35;76.27;99193.31;6153823;23;20306;-71
2021/11/25 03:35:28;;;;;;;;;;;;;;;2.28;76.82;99197.16;6154006;23;19920;-67
2021/11/25 03:37:54;;;;;;;;;;;;;;;2.25;76.66;99192.94;6153813;23;20007;-63
2021/11/25 03:40:20;;;;;;;;;;;;;;;2.26;76.63;99209.44;6154318;23;19927;-68
2021/11/25 03:42:45;;;;;;;;;;;;;;;2.25;76.73;99205.13;6154005;23;19921;-65
2021/11/25 03:45:11;;;;;;;;;;;;;;;2.25;76.72;99202.53;6153966;23;20003;-66
2021/11/25 03:47:37;;;;;;;;;;;;;;;2.29;76.66;99198.00;6154046;23;20010;-68
2021/11/25 03:50:03;;;;;;;;;;;;;;;2.31;76.51;99207.44;6154678;23;20011;-70
2021/11/25 03:52:29;;;;;;;;;;;;;;;2.38;76.58;99214.03;6155207;23;19920;-67
2021/11/25 03:54:55;;;;;;;;;;;;;;;2.42;76.11;99209.50;6155381;23;19925;-66
2021/11/25 03:57:21;;;;;;;;;;;;;;;2.40;76.21;99221.78;6156035;23;19924;-68
2021/11/25 03:59:48;;;;;;;;;;;;;;;2.38;76.33;99223.63;6130035;23;20681;-70
2021/11/25 04:02:13;;;;;;;;;;;;;;;2.39;76.07;99223.56;6155387;23;20340;-72
2021/11/25 04:04:39;;;;;;;;;;;;;;;2.36;75.92;99228.09;6156425;23;19944;-67
2021/11/25 04:07:04;;;;;;;;;;;;;;;2.42;75.88;99239.06;6156107;23;20455;-68
2021/11/25 04:09:30;;;;;;;;;;;;;;;2.41;76.04;99239.97;6155982;23;19971;-68
2021/11/25 04:11:56;;;;;;;;;;;;;;;2.43;75.82;99240.75;6155203;23;19926;-68
2021/11/25 04:14:21;;;;;;;;;;;;;;;2.44;76.34;99244.19;6155847;23;19921;-69
2021/11/25 04:16:47;;;;;;;;;;;;;;;2.43;75.79;99248.56;6155448;23;19967;-69
2021/11/25 04:19:13;;;;;;;;;;;;;;;2.48;75.96;99253.56;6155707;23;19927;-71
2021/11/25 04:21:38;;;;;;;;;;;;;;;2.40;75.95;99251.31;6155719;23;19940;-68
2021/11/25 04:24:04;;;;;;;;;;;;;;;2.37;75.80;99253.28;6155472;23;19920;-67
2021/11/25 04:26:29;;;;;;;;;;;;;;;2.49;75.78;99251.78;6155884;23;19920;-66
2021/11/25 04:28:55;;;;;;;;;;;;;;;2.42;75.66;99259.94;6154910;23;19924;-70
2021/11/25 04:36:49;;;;;;;;;;;;;;;2.46;74.90;99257.19;6154412;23;20288;-68
2021/11/25 04:39:16;;;;;;;;;;;;;;;2.47;75.26;99256.22;6155225;23;19958;-71
2021/11/25 04:41:42;;;;;;;;;;;;;;;2.49;75.12;99262.22;6155392;23;19921;-67
2021/11/25 04:44:07;;;;;;;;;;;;;;;2.43;74.71;99276.44;6128980;23;19920;-68
2021/11/25 04:46:33;;;;;;;;;;;;;;;2.43;74.73;99274.69;6155068;23;19974;-68
2021/11/25 04:48:59;;;;;;;;;;;;;;;2.53;74.93;99274.19;6155338;23;19927;-67
2021/11/25 04:51:25;;;;;;;;;;;;;;;2.66;74.56;99285.72;6155603;23;19924;-70
2021/11/25 04:53:50;;;;;;;;;;;;;;;2.73;74.43;99284.50;6155733;23;20369;-67
2021/11/25 04:56:16;;;;;;;;;;;;;;;2.73;74.21;99281.88;6155444;23;19920;-69
2021/11/25 04:58:41;;;;;;;;;;;;;;;2.71;74.06;99296.75;6155277;23;19921;-67
2021/11/25 05:01:07;;;;;;;;;;;;;;;2.55;74.52;99283.63;6155936;23;19944;-69
2021/11/25 05:03:33;;;;;;;;;;;;;;;2.53;74.91;99289.84;6154602;23;19959;-69
2021/11/25 05:05:59;;;;;;;;;;;;;;;2.48;75.23;99292.72;6155020;23;19920;-72
2021/11/25 05:08:24;;;;;;;;;;;;;;;2.45;75.38;99292.03;6155303;23;20012;-69
2021/11/25 05:10:50;;;;;;;;;;;;;;;2.48;75.65;99294.47;6129924;23;19983;-67
2021/11/25 05:13:15;;;;;;;;;;;;;;;2.46;75.82;99297.16;6155028;23;20255;-67
2021/11/25 05:15:41;;;;;;;;;;;;;;;2.45;76.16;99298.06;6154893;23;19943;-71
2021/11/25 05:18:07;;;;;;;;;;;;;;;2.39;75.93;99301.00;6128571;23;20386;-69
2021/11/25 05:20:33;;;;;;;;;;;;;;;2.38;76.00;99301.91;6153896;23;20429;-70
2021/11/25 05:22:59;;;;;;;;;;;;;;;2.31;76.46;99305.75;6154455;23;20006;-68
2021/11/25 05:25:24;;;;;;;;;;;;;;;2.35;76.71;99307.28;6154503;23;19948;-67
2021/11/25 05:27:50;;;;;;;;;;;;;;;2.37;77.19;99316.72;6128306;23;19927;-69
2021/11/25 05:30:16;;;;;;;;;;;;;;;2.46;76.26;99315.44;6155080;23;19920;-67
2021/11/25 05:32:43;;;;;;;;;;;;;;;2.41;76.65;99313.03;6155650;23;19920;-68
2021/11/25 05:35:09;;;;;;;;;;;;;;;2.36;76.38;99320.25;6128933;23;20328;-68
2021/11/25 05:37:35;;;;;;;;;;;;;;;2.34;76.57;99316.88;6155170;23;19920;-71
2021/11/25 05:40:01;;;;;;;;;;;;;;;2.29;77.27;99329.31;6155401;23;20232;-73
2021/11/25 05:42:30;;;;;;;;;;;;;;;2.29;77.09;99325.84;6155443;23;20007;-69
2021/11/25 05:44:57;;;;;;;;;;;;;;;2.34;77.00;99327.31;6155023;23;20245;-71
2021/11/25 05:47:23;;;;;;;;;;;;;;;2.42;77.10;99329.56;6155274;23;19967;-67
2021/11/25 05:49:50;;;;;;;;;;;;;;;2.45;76.82;99337.22;6156089;23;19920;-66
2021/11/25 05:52:15;;;;;;;;;;;;;;;2.49;76.92;99335.31;6156198;23;20007;-68
2021/11/25 05:54:41;;;;;;;;;;;;;;;2.51;76.86;99325.66;6155224;23;19921;-67
2021/11/25 05:57:07;;;;;;;;;;;;;;;2.52;76.50;99335.19;6155117;23;19927;-68
2021/11/25 05:59:32;;;;;;;;;;;;;;;2.49;76.78;99335.31;6154765;23;19927;-66
2021/11/25 06:01:58;;;;;;;;;;;;;;;2.57;76.74;99338.41;6155529;23;20256;-70
2021/11/25 06:04:23;;;;;;;;;;;;;;;2.67;76.40;99337.03;6155159;23;19921;-68
2021/11/25 06:06:49;;;;;;;;;;;;;;;2.74;75.98;99333.19;6156102;23;20011;-71
2021/11/25 06:09:15;;;;;;;;;;;;;;;2.73;75.87;99339.31;6129115;23;20003;-66
2021/11/25 06:11:40;;;;;;;;;;;;;;;2.80;75.95;99333.78;6129586;23;19931;-71
2021/11/25 06:14:06;;;;;;;;;;;;;;;2.72;76.09;99335.00;6154813;23;20341;-67
2021/11/25 06:16:31;;;;;;;;;;;;;;;2.68;76.37;99341.31;6155114;23;19920;-70
2021/11/25 06:18:57;;;;;;;;;;;;;;;2.75;76.00;99337.50;6155178;23;19952;-67
2021/11/25 06:21:23;;;;;;;;;;;;;;;2.85;76.21;99334.41;6154622;23;19924;-68
2021/11/25 06:23:48;;;;;;;;;;;;;;;2.83;76.09;99334.47;6154914;23;20004;-67
2021/11/25 06:26:14;;;;;;;;;;;;;;;2.97;75.46;99339.00;6154778;23;19920;-65
2021/11/25 06:28:40;;;;;;;;;;;;;;;2.87;75.65;99345.63;6154698;23;20411;-68
2021/11/25 06:31:05;;;;;;;;;;;;;;;2.97;75.49;99344.22;6128466;23;19921;-70
2021/11/25 06:33:31;;;;;;;;;;;;;;;3.11;74.93;99342.69;6154654;23;19931;-65
2021/11/25 06:35:57;;;;;;;;;;;;;;;3.06;74.74;99346.34;6128963;23;20011;-68
2021/11/25 06:38:22;;;;;;;;;;;;;;;3.04;74.57;99348.22;6154477;23;19920;-68
2021/11/25 06:40:49;;;;;;;;;;;;;;;2.88;75.09;99349.94;6154875;23;19921;-67
2021/11/25 06:43:14;;;;;;;;;;;;;;;2.84;75.51;99351.00;6155441;23;19921;-68
2021/11/25 06:45:42;;;;;;;;;;;;;;;2.77;75.84;99349.59;6154832;23;19928;-70
2021/11/25 06:48:08;;;;;;;;;;;;;;;2.83;75.74;99354.50;6154877;23;20256;-68
2021/11/25 06:50:33;;;;;;;;;;;;;;;2.86;76.23;99351.75;6154767;23;19920;-69
2021/11/25 06:52:59;;;;;;;;;;;;;;;3.07;75.94;99348.03;6154716;23;19920;-67
2021/11/25 06:55:25;;;;;;;;;;;;;;;3.06;75.26;99353.34;6153981;23;19951;-70
2021/11/25 06:57:51;;;;;;;;;;;;;;;2.99;75.76;99354.59;6154565;23;19925;-69
2021/11/25 07:00:25;;;;;;;;;;;;;;;2.87;76.06;99356.06;6154079;23;19925;-70
2021/11/25 07:02:54;;;;;;;;;;;;;;;2.92;76.28;99356.69;6128558;23;19920;-67
2021/11/25 07:05:22;;;;;;;;;;;;;;;2.91;76.13;99357.59;6154703;23;19927;-71
2021/11/25 07:07:48;;;;;;;;;;;;;;;2.94;75.97;99362.69;6154903;23;19995;-72
2021/11/25 07:10:14;;;;;;;;;;;;;;;2.92;76.31;99352.28;6128530;23;19948;-68
2021/11/25 07:12:40;;;;;;;;;;;;;;;2.90;76.35;99361.13;6154688;23;19948;-70
2021/11/25 07:15:10;;;;;;;;;;;;;;;3.04;76.21;99363.03;6154792;23;19920;-72
2021/11/25 07:17:36;;;;;;;;;;;;;;;3.07;75.95;99363.72;6154661;23;20004;-69
2021/11/25 07:20:03;;;;;;;;;;;;;;;3.15;75.89;99375.56;6128873;23;20305;-69
2021/11/25 07:22:29;;;;;;;;;;;;;;;3.33;75.40;99373.78;6155462;23;19975;-68
2021/11/25 07:24:55;;;;;;;;;;;;;;;3.37;74.94;99376.13;6155530;23;20046;-73
2021/11/25 07:27:20;;;;;;;;;;;;;;;3.47;74.74;99366.03;6154310;23;19920;-68
2021/11/25 07:29:46;;;;;;;;;;;;;;;3.45;74.50;99372.28;6155752;23;19947;-70
2021/11/25 07:32:11;;;;;;;;;;;;;;;3.55;74.24;99373.47;6156872;23;19921;-67
2021/11/25 07:34:37;;;;;;;;;;;;;;;3.46;74.40;99373.97;6156709;23;20260;-68
2021/11/25 07:37:03;;;;;;;;;;;;;;;3.44;74.31;99371.44;6130885;23;19920;-67
2021/11/25 07:39:29;;;;;;;;;;;;;;;3.37;74.16;99380.53;6131760;23;19920;-69
2021/11/25 07:41:55;;;;;;;;;;;;;;;3.51;74.14;99387.63;6157424;23;20349;-66
2021/11/25 07:44:20;;;;;;;;;;;;;;;3.46;74.11;99390.50;6156320;23;19932;-69
2021/11/25 07:46:46;;;;;;;;;;;;;;;3.50;73.94;99396.41;6131383;23;20332;-69
2021/11/25 07:49:12;;;;;;;;;;;;;;;3.39;74.36;99389.13;6130835;23;20301;-66
2021/11/25 07:51:37;;;;;;;;;;;;;;;3.45;74.53;99399.28;6157165;23;19924;-69
2021/11/25 07:54:08;;;;;;;;;;;;;;;3.49;74.10;99392.09;6156925;23;19927;-68
2021/11/25 07:56:38;;;;;;;;;;;;;;;3.51;74.09;99387.63;6125157;23;19920;-67
2021/11/25 07:59:04;;;;;;;;;;;;;;;3.45;74.19;99393.19;6126983;23;19921;-67
2021/11/25 08:01:33;;;;;;;;;;;;;;;3.45;74.32;99395.81;6127159;23;19944;-70
2021/11/25 08:03:59;;;;;;;;;;;;;;;3.30;74.39;99400.06;6126980;23;20003;-69
2021/11/25 08:06:25;;;;;;;;;;;;;;;3.30;75.02;99400.91;6126505;23;20305;-69
2021/11/25 08:08:50;;;;;;;;;;;;;;;3.20;75.34;99410.13;6125677;23;19928;-71
2021/11/25 08:11:18;;;;;;;;;;;;;;;3.14;75.74;99405.22;6125578;23;19921;-69
2021/11/25 08:13:45;;;;;;;;;;;;;;;3.30;75.62;99407.91;6127815;23;19944;-68
2021/11/25 08:16:14;;;;;;;;;;;;;;;3.42;75.29;99395.97;6126300;23;19936;-71
2021/11/25 08:18:40;;;;;;;;;;;;;;;3.30;75.42;99395.69;6126414;23;20230;-68
2021/11/25 08:21:06;;;;;;;;;;;;;;;3.21;75.54;99402.22;6126517;23;19920;-68
2021/11/25 08:23:32;;;;;;;;;;;;;;;3.33;75.56;99397.31;6126734;23;19928;-73
2021/11/25 08:26:00;;;;;;;;;;;;;;;3.44;75.08;99397.59;6125451;23;19920;-69
2021/11/25 08:28:26;;;;;;;;;;;;;;;3.39;75.27;99403.03;6125370;23;19953;-68
2021/11/25 08:30:54;;;;;;;;;;;;;;;3.33;75.43;99399.91;6125375;23;20008;-68
2021/11/25 08:33:20;;;;;;;;;;;;;;;3.36;75.44;99403.19;6101631;23;20331;-66
2021/11/25 08:35:49;;;;;;;;;;;;;;;3.27;75.38;99397.63;6127299;23;19921;-66
2021/11/25 08:38:15;;;;;;;;;;;;;;;3.30;75.67;99406.16;6126711;23;19921;-70
2021/11/25 08:40:40;;;;;;;;;;;;;;;3.33;75.56;99403.34;6127382;23;19928;-67
2021/11/25 08:43:06;;;;;;;;;;;;;;;3.39;75.33;99400.44;6127071;23;19928;-69
2021/11/25 08:45:33;;;;;;;;;;;;;;;3.44;75.40;99401.94;6126248;23;20519;-66
2021/11/25 08:48:02;;;;;;;;;;;;;;;3.53;75.01;99401.47;6126238;23;19921;-68
2021/11/25 08:50:27;;;;;;;;;;;;;;;3.56;75.13;99403.94;6124181;23;19945;-69
2021/11/25 08:52:53;;;;;;;;;;;;;;;3.58;74.90;99404.69;6126237;23;19981;-69
2021/11/25 08:55:20;;;;;;;;;;;;;;;3.59;74.89;99398.56;6124536;23;19974;-68
2021/11/25 08:57:46;;;;;;;;;;;;;;;3.61;74.60;99409.75;6126237;23;19927;-69
2021/11/25 09:00:12;;;;;;;;;;;;;;;3.59;74.69;99398.56;6126279;23;19947;-69
2021/11/25 09:02:38;;;;;;;;;;;;;;;3.61;74.66;99399.28;6126495;23;19921;-67
2021/11/25 09:05:05;;;;;;;;;;;;;;;3.52;74.58;99399.78;6126203;23;19921;-67
2021/11/25 09:07:33;;;;;;;;;;;;;;;3.54;74.49;99395.34;6100034;23;19921;-73
2021/11/25 09:09:58;;;;;;;;;;;;;;;3.50;74.65;99399.03;6126256;23;19921;-72
2021/11/25 09:12:24;;;;;;;;;;;;;;;3.50;74.95;99399.88;6126971;23;19921;-70
2021/11/25 09:14:50;;;;;;;;;;;;;;;3.37;75.17;99398.81;6127690;23;19925;-71
2021/11/25 09:17:15;;;;;;;;;;;;;;;3.37;75.35;99402.28;6125286;23;20349;-71
2021/11/25 09:19:41;;;;;;;;;;;;;;;3.38;75.49;99397.91;6126885;23;19947;-67
2021/11/25 09:22:07;;;;;;;;;;;;;;;3.47;75.26;99393.97;6126981;23;19921;-69
2021/11/25 09:24:33;;;;;;;;;;;;;;;3.41;74.98;99397.72;6125765;23;19921;-69
2021/11/25 09:27:02;;;;;;;;;;;;;;;3.37;75.42;99390.97;6127063;23;19927;-67
2021/11/25 09:29:28;;;;;;;;;;;;;;;3.39;75.39;99391.75;6125229;23;20035;-70
2021/11/25 09:31:54;;;;;;;;;;;;;;;3.35;75.35;99388.44;6126856;23;19921;-71
2021/11/25 09:34:19;;;;;;;;;;;;;;;3.36;75.83;99390.13;6126662;23;19943;-68
2021/11/25 09:36:45;;;;;;;;;;;;;;;3.33;76.16;99390.28;6126188;23;19924;-69
2021/11/25 09:39:10;;;;;;;;;;;;;;;3.33;76.22;99395.53;6128690;23;19944;-68
2021/11/25 09:41:36;;;;;;;;;;;;;;;3.31;76.00;99392.13;6101329;23;19927;-71
2021/11/25 09:44:02;;;;;;;;;;;;;;;3.28;75.98;99392.31;6125618;23;19921;-68
2021/11/25 09:46:28;;;;;;;;;;;;;;;3.26;76.25;99394.13;6124541;23;19921;-68
2021/11/25 09:48:54;;;;;;;;;;;;;;;3.31;76.25;99389.50;6101496;23;19921;-69
2021/11/25 09:51:22;;;;;;;;;;;;;;;3.31;76.26;99392.13;6127041;23;20048;-74
2021/11/25 09:53:48;;;;;;;;;;;;;;;3.33;76.54;99395.53;6100819;23;20317;-68
2021/11/25 09:56:14;;;;;;;;;;;;;;;3.19;76.63;99392.75;6124246;23;19971;-70
2021/11/25 09:58:40;;;;;;;;;;;;;;;3.23;77.00;99396.94;6126061;23;19927;-71
2021/11/25 10:01:12;;;;;;;;;;;;;;;3.23;76.67;99400.38;6124162;23;19948;-69
2021/11/25 10:03:40;;;;;;;;;;;;;;;3.20;76.83;99389.22;6124037;23;20542;-71
2021/11/25 10:06:05;;;;;;;;;;;;;;;3.27;76.88;99395.84;6124730;23;19931;-72
2021/11/25 10:08:31;;;;;;;;;;;;;;;3.24;77.00;99386.38;6125843;23;20439;-67
2021/11/25 10:11:18;;;;;;;;;;;;;;;3.27;77.12;99395.84;6126538;23;19928;-71
2021/11/25 10:14:12;;;;;;;;;;;;;;;3.22;76.87;99395.22;6115277;23;19925;-73
2021/11/25 10:16:41;;;;;;;;;;;;;;;3.20;76.95;99386.63;6123579;23;19927;-69
2021/11/25 10:19:12;;;;;;;;;;;;;;;3.24;77.10;99390.78;6124574;23;19927;-69
2021/11/25 10:21:42;;;;;;;;;;;;;;;3.27;76.95;99379.31;6124947;23;19928;-67
2021/11/25 10:24:08;;;;;;;;;;;;;;;3.24;76.73;99385.56;6125912;23;20007;-69
2021/11/25 10:26:34;;;;;;;;;;;;;;;3.16;77.01;99379.88;6124045;23;19943;-67
2021/11/25 10:29:01;;;;;;;;;;;;;;;3.16;77.02;99372.03;6099797;23;19928;-69
2021/11/25 10:31:34;;;;;;;;;;;;;;;3.12;77.16;99371.34;6125410;23;19921;-67
2021/11/25 10:34:09;;;;;;;;;;;;;;;3.18;77.13;99376.25;6099884;23;20004;-69
2021/11/25 10:36:55;;;;;;;;;;;;;;;3.20;76.75;99373.53;6124578;23;19921;-69
2021/11/25 10:41:49;;;;;;;;;;;;;;;3.18;76.72;99368.41;6124454;23;19927;-72
2021/11/25 10:44:16;;;;;;;;;;;;;;;3.19;76.95;99361.41;6125206;23;19928;-69
2021/11/25 10:46:56;;;;;;;;;;;;;;;3.21;76.75;99370.84;6125470;23;19964;-71
2021/11/25 10:49:57;;;;;;;;;;;;;;;3.29;76.31;99365.25;6125877;23;19932;-73
2021/11/25 10:52:31;;;;;;;;;;;;;;;3.29;76.48;99360.03;6064956;23;20000;-71
2021/11/25 10:54:59;;;;;;;;;;;;;;;3.32;76.58;99361.63;6064341;23;19922;-70
2021/11/25 10:57:34;;;;;;;;;;;;;;;3.32;76.37;99362.47;6064394;23;20338;-67
2021/11/25 11:00:04;;;;;;;;;;;;;;;3.31;76.46;99366.00;6065054;23;19972;-69
2021/11/25 11:02:31;;;;;;;;;;;;;;;3.31;76.44;99352.09;6040662;23;19977;-72
2021/11/25 11:04:57;;;;;;;;;;;;;;;3.29;76.31;99362.63;6040778;23;20400;-68
2021/11/25 11:07:24;;;;;;;;;;;;;;;3.32;76.36;99362.47;6064244;23;19953;-71
2021/11/25 11:09:50;;;;;;;;;;;;;;;3.27;76.67;99361.84;6065615;23;19921;-69
2021/11/25 11:12:20;;;;;;;;;;;;;;;3.30;76.39;99358.25;6064128;23;19921;-70
2021/11/25 11:14:52;;;;;;;;;;;;;;;3.23;76.41;99357.72;6064460;23;20396;-68
2021/11/25 11:17:25;;;;;;;;;;;;;;;3.20;76.50;99363.09;6064857;23;19922;-73
2021/11/25 11:20:23;;;;;;;;;;;;;;;3.17;77.00;99361.50;6064729;23;20289;-68
2021/11/25 11:22:49;;;;;;;;;;;;;;;3.18;77.14;99349.28;5978915;23;19923;-69
2021/11/25 11:25:17;;;;;;;;;;;;;;;3.22;76.88;99351.63;5983474;23;19922;-70
2021/11/25 11:27:43;;;;;;;;;;;;;;;3.18;76.83;99364.97;6017135;23;19925;-72
2021/11/25 11:30:09;;;;;;;;;;;;;;;3.18;77.26;99362.34;6040251;23;19921;-69
2021/11/25 11:32:34;;;;;;;;;;;;;;;3.21;76.74;99362.19;6065761;23;20403;-70
2021/11/25 11:35:00;;;;;;;;;;;;;;;3.18;76.92;99359.75;6018132;23;20005;-68
2021/11/25 11:37:26;;;;;;;;;;;;;;;3.25;76.92;99355.84;6040102;23;19952;-67
2021/11/25 11:44:04;;;;;;;;;;;;;;;;;;;;;
2021/11/25 11:47:28;;;;;;;;;;;;;;;3.24;77.05;99362.03;6015389;23;19922;-71
2021/11/25 11:50:49;;;;;;;;;;;;;;;3.23;77.17;99357.72;5934291;24;20368;-73
2021/11/25 11:57:40;;;;;;;;;;;;;;;3.18;76.78;99359.75;5803841;24;20246;-70
2021/11/25 12:00:53;;;;;;;;;;;;;;;3.24;76.82;99354.19;5865161;24;19996;-71
2021/11/25 12:07:00;;;;;;;;;;;;;;;3.20;76.68;99355.25;5815828;24;19920;-70
2021/11/25 12:09:43;;;;;;;;;;;;;;;3.16;76.98;99357.19;5868474;24;20376;-69
2021/11/25 12:13:11;;;;;;;;;;;;;;;;;;;;;
2021/11/25 12:16:47;;;;;;;;;;;;;;;3.15;76.90;99357.25;5853672;24;19961;-71
2021/11/25 12:19:17;;;;;;;;;;;;;;;3.06;77.72;99356.81;5888788;24;19922;-70
2021/11/25 12:21:43;;;;;;;;;;;;;;;3.10;77.26;99354.06;5953296;24;19923;-71
2021/11/25 12:24:09;;;;;;;;;;;;;;;2.98;77.75;99355.50;5970246;23;19969;-71
2021/11/25 12:26:53;;;;;;;;;;;;;;;3.01;77.68;99358.81;6065205;23;19922;-70
2021/11/25 12:29:37;;;;;;;;;;;;;;;2.94;77.65;99352.22;6065472;23;19993;-71
2021/11/25 12:32:26;;;;;;;;;;;;;;;2.95;78.04;99359.13;6092616;23;20354;-69
2021/11/25 12:34:55;;;;;;;;;;;;;;;2.96;77.88;99350.38;6101280;23;19924;-73
2021/11/25 12:37:40;;;;;;;;;;;;;;;3.03;77.99;99354.38;6100402;23;19925;-69
2021/11/25 12:40:06;;;;;;;;;;;;;;;3.02;77.91;99351.84;6100518;23;19968;-71
2021/11/25 12:42:31;;;;;;;;;;;;;;;3.04;77.80;99353.44;6100003;23;20279;-74
2021/11/25 12:44:57;;;;;;;;;;;;;;;3.07;77.61;99350.66;6099921;23;20379;-70
2021/11/25 12:47:25;;;;;;;;;;;;;;;3.01;77.70;99347.53;6126105;23;19920;-76
2021/11/25 12:49:59;;;;;;;;;;;;;;;3.02;77.81;99354.44;6126098;23;19925;-73
2021/11/25 12:52:29;;;;;;;;;;;;;;;3.00;78.04;99357.13;6096630;23;19921;-72
2021/11/25 12:55:14;;;;;;;;;;;;;;;3.03;77.91;99362.19;6100059;23;19921;-72
2021/11/25 12:57:53;;;;;;;;;;;;;;;2.99;78.00;99357.19;6099965;23;20332;-73
2021/11/25 13:00:24;;;;;;;;;;;;;;;2.97;78.36;99356.47;6077636;23;19932;-72
2021/11/25 13:03:07;;;;;;;;;;;;;;;2.82;78.58;99368.53;6126405;23;19921;-68
2021/11/25 13:05:42;;;;;;;;;;;;;;;2.82;78.53;99358.91;6126205;23;20023;-69
2021/11/25 13:08:10;;;;;;;;;;;;;;;2.81;78.82;99366.81;6126249;23;19945;-67
2021/11/25 13:10:44;;;;;;;;;;;;;;;2.83;79.02;99357.13;6125493;23;20000;-70
2021/11/25 13:13:15;;;;;;;;;;;;;;;2.81;78.84;99359.00;6100286;23;20016;-72
2021/11/25 13:15:59;;;;;;;;;;;;;;;2.80;78.67;99354.69;6100637;23;19928;-69
2021/11/25 13:19:04;;;;;;;;;;;;;;;2.75;79.24;99361.00;6125434;23;19987;-69
2021/11/25 13:21:40;;;;;;;;;;;;;;;2.79;78.83;99353.00;6125697;23;19952;-70
2021/11/25 13:24:08;;;;;;;;;;;;;;;2.80;78.86;99352.91;6099983;23;20253;-72
2021/11/25 13:27:00;;;;;;;;;;;;;;;2.73;78.78;99354.16;6100011;23;19921;-69